sensor_id;sensor_type;location;lat;lon;timestamp;P1;durP1;ratioP1;P2;durP2;ratioP2
25127;SDS011;13107;51.304;6.866;2023-02-11T00:03:18;38.38;;;23.23;;
25127;SDS011;13107;51.304;6.866;2023-02-11T00:07:19;39.78;;;23.15;;
25127;SDS011;13107;51.304;6.866;2023-02-11T00:11:22;37.55;;;22.52;;
25127;SDS011;13107;51.304;6.866;2023-02-11T00:15:26;34.53;;;21.58;;
25127;SDS011;13107;51.304;6.866;2023-02-11T00:19:28;39.42;;;22.77;;
25127;SDS011;13107;51.304;6.866;2023-02-11T00:23:29;34.88;;;20.55;;
25127;SDS011;13107;51.304;6.866;2023-02-11T00:27:31;36.95;;;21.20;;
25127;SDS011;13107;51.304;6.866;2023-02-11T00:31:33;32.45;;;20.48;;
25127;SDS011;13107;51.304;6.866;2023-02-11T00:35:35;35.33;;;20.30;;
25127;SDS011;13107;51.304;6.866;2023-02-11T00:39:38;28.80;;;18.87;;
25127;SDS011;13107;51.304;6.866;2023-02-11T00:43:40;33.80;;;19.12;;
25127;SDS011;13107;51.304;6.866;2023-02-11T00:47:42;31.10;;;18.98;;
25127;SDS011;13107;51.304;6.866;2023-02-11T00:51:44;33.70;;;18.83;;
25127;SDS011;13107;51.304;6.866;2023-02-11T00:55:45;30.33;;;18.45;;
25127;SDS011;13107;51.304;6.866;2023-02-11T00:59:47;35.38;;;19.83;;
25127;SDS011;13107;51.304;6.866;2023-02-11T01:03:50;27.65;;;18.77;;
25127;SDS011;13107;51.304;6.866;2023-02-11T01:07:52;35.15;;;20.15;;
25127;SDS011;13107;51.304;6.866;2023-02-11T01:11:54;34.05;;;18.65;;
25127;SDS011;13107;51.304;6.866;2023-02-11T01:15:55;30.55;;;19.48;;
25127;SDS011;13107;51.304;6.866;2023-02-11T01:19:57;32.72;;;19.45;;
25127;SDS011;13107;51.304;6.866;2023-02-11T01:23:59;34.65;;;19.92;;
25127;SDS011;13107;51.304;6.866;2023-02-11T01:28:01;33.22;;;21.00;;
25127;SDS011;13107;51.304;6.866;2023-02-11T01:32:02;35.35;;;20.75;;
25127;SDS011;13107;51.304;6.866;2023-02-11T01:36:05;34.25;;;20.42;;
25127;SDS011;13107;51.304;6.866;2023-02-11T01:40:10;33.40;;;20.90;;
25127;SDS011;13107;51.304;6.866;2023-02-11T01:48:38;34.13;;;20.98;;
25127;SDS011;13107;51.304;6.866;2023-02-11T01:52:43;30.73;;;19.90;;
25127;SDS011;13107;51.304;6.866;2023-02-11T01:56:48;33.47;;;20.12;;
25127;SDS011;13107;51.304;6.866;2023-02-11T02:01:12;34.53;;;19.85;;
25127;SDS011;13107;51.304;6.866;2023-02-11T02:05:25;27.10;;;17.70;;
25127;SDS011;13107;51.304;6.866;2023-02-11T02:09:41;31.77;;;19.62;;
25127;SDS011;13107;51.304;6.866;2023-02-11T02:13:48;34.22;;;19.50;;
25127;SDS011;13107;51.304;6.866;2023-02-11T02:17:53;34.42;;;19.60;;
25127;SDS011;13107;51.304;6.866;2023-02-11T02:30:52;32.83;;;18.80;;
25127;SDS011;13107;51.304;6.866;2023-02-11T02:39:14;27.60;;;18.15;;
25127;SDS011;13107;51.304;6.866;2023-02-11T02:43:20;32.92;;;18.20;;
25127;SDS011;13107;51.304;6.866;2023-02-11T02:47:23;38.42;;;18.92;;
25127;SDS011;13107;51.304;6.866;2023-02-11T02:55:53;31.90;;;18.05;;
25127;SDS011;13107;51.304;6.866;2023-02-11T03:05:17;29.98;;;18.62;;
25127;SDS011;13107;51.304;6.866;2023-02-11T03:13:55;30.40;;;16.55;;
25127;SDS011;13107;51.304;6.866;2023-02-11T03:17:59;29.67;;;17.12;;
25127;SDS011;13107;51.304;6.866;2023-02-11T03:22:04;32.55;;;17.80;;
25127;SDS011;13107;51.304;6.866;2023-02-11T03:26:15;24.85;;;16.37;;
25127;SDS011;13107;51.304;6.866;2023-02-11T03:30:31;27.83;;;16.23;;
25127;SDS011;13107;51.304;6.866;2023-02-11T03:34:41;30.70;;;16.12;;
25127;SDS011;13107;51.304;6.866;2023-02-11T03:39:03;28.67;;;17.52;;
25127;SDS011;13107;51.304;6.866;2023-02-11T03:43:40;27.90;;;17.33;;
25127;SDS011;13107;51.304;6.866;2023-02-11T03:47:37;31.67;;;16.48;;
25127;SDS011;13107;51.304;6.866;2023-02-11T03:51:41;27.35;;;15.60;;
25127;SDS011;13107;51.304;6.866;2023-02-11T03:55:44;29.20;;;17.10;;
25127;SDS011;13107;51.304;6.866;2023-02-11T03:59:52;27.50;;;17.15;;
25127;SDS011;13107;51.304;6.866;2023-02-11T04:03:57;28.83;;;16.75;;
25127;SDS011;13107;51.304;6.866;2023-02-11T04:07:59;26.25;;;15.98;;
25127;SDS011;13107;51.304;6.866;2023-02-11T04:12:01;28.87;;;16.52;;
25127;SDS011;13107;51.304;6.866;2023-02-11T04:16:03;30.80;;;17.00;;
25127;SDS011;13107;51.304;6.866;2023-02-11T04:20:05;30.05;;;16.95;;
25127;SDS011;13107;51.304;6.866;2023-02-11T04:24:08;29.92;;;16.73;;
25127;SDS011;13107;51.304;6.866;2023-02-11T04:28:09;30.33;;;17.15;;
25127;SDS011;13107;51.304;6.866;2023-02-11T04:32:11;35.13;;;17.60;;
25127;SDS011;13107;51.304;6.866;2023-02-11T04:36:13;33.17;;;17.42;;
25127;SDS011;13107;51.304;6.866;2023-02-11T04:40:15;34.60;;;18.45;;
25127;SDS011;13107;51.304;6.866;2023-02-11T04:44:17;29.25;;;17.55;;
25127;SDS011;13107;51.304;6.866;2023-02-11T04:48:19;33.17;;;19.42;;
25127;SDS011;13107;51.304;6.866;2023-02-11T04:52:20;35.60;;;20.00;;
25127;SDS011;13107;51.304;6.866;2023-02-11T04:56:22;34.55;;;19.73;;
25127;SDS011;13107;51.304;6.866;2023-02-11T05:00:24;42.20;;;20.33;;
25127;SDS011;13107;51.304;6.866;2023-02-11T05:04:26;38.60;;;20.58;;
25127;SDS011;13107;51.304;6.866;2023-02-11T05:08:28;43.05;;;21.12;;
25127;SDS011;13107;51.304;6.866;2023-02-11T05:12:30;33.60;;;20.23;;
25127;SDS011;13107;51.304;6.866;2023-02-11T05:16:31;39.08;;;20.15;;
25127;SDS011;13107;51.304;6.866;2023-02-11T05:20:33;40.22;;;20.60;;
25127;SDS011;13107;51.304;6.866;2023-02-11T05:24:37;35.58;;;19.58;;
25127;SDS011;13107;51.304;6.866;2023-02-11T05:28:39;44.55;;;21.48;;
25127;SDS011;13107;51.304;6.866;2023-02-11T05:32:41;44.28;;;22.60;;
25127;SDS011;13107;51.304;6.866;2023-02-11T05:36:43;39.10;;;21.65;;
25127;SDS011;13107;51.304;6.866;2023-02-11T05:40:45;41.65;;;23.55;;
25127;SDS011;13107;51.304;6.866;2023-02-11T05:44:46;46.72;;;23.45;;
25127;SDS011;13107;51.304;6.866;2023-02-11T05:48:50;46.55;;;23.77;;
25127;SDS011;13107;51.304;6.866;2023-02-11T05:52:52;42.03;;;23.55;;
25127;SDS011;13107;51.304;6.866;2023-02-11T05:56:54;41.65;;;24.75;;
25127;SDS011;13107;51.304;6.866;2023-02-11T06:00:56;49.05;;;24.60;;
25127;SDS011;13107;51.304;6.866;2023-02-11T06:04:58;46.78;;;25.70;;
25127;SDS011;13107;51.304;6.866;2023-02-11T06:09:00;42.65;;;24.37;;
25127;SDS011;13107;51.304;6.866;2023-02-11T06:13:01;47.53;;;24.55;;
25127;SDS011;13107;51.304;6.866;2023-02-11T06:17:03;44.05;;;24.73;;
25127;SDS011;13107;51.304;6.866;2023-02-11T06:21:06;42.20;;;25.50;;
25127;SDS011;13107;51.304;6.866;2023-02-11T06:25:09;51.00;;;25.65;;
25127;SDS011;13107;51.304;6.866;2023-02-11T06:29:11;40.97;;;24.70;;
25127;SDS011;13107;51.304;6.866;2023-02-11T06:33:14;52.03;;;25.10;;
25127;SDS011;13107;51.304;6.866;2023-02-11T06:37:16;43.75;;;24.52;;
25127;SDS011;13107;51.304;6.866;2023-02-11T06:41:17;42.30;;;25.00;;
25127;SDS011;13107;51.304;6.866;2023-02-11T06:45:20;50.03;;;26.17;;
25127;SDS011;13107;51.304;6.866;2023-02-11T06:49:22;45.60;;;25.02;;
25127;SDS011;13107;51.304;6.866;2023-02-11T06:53:23;52.78;;;25.95;;
25127;SDS011;13107;51.304;6.866;2023-02-11T06:57:25;51.50;;;25.52;;
25127;SDS011;13107;51.304;6.866;2023-02-11T07:01:27;52.42;;;25.27;;
25127;SDS011;13107;51.304;6.866;2023-02-11T07:05:29;48.78;;;25.77;;
25127;SDS011;13107;51.304;6.866;2023-02-11T07:09:30;52.85;;;25.90;;
25127;SDS011;13107;51.304;6.866;2023-02-11T07:13:32;54.35;;;25.60;;
25127;SDS011;13107;51.304;6.866;2023-02-11T07:17:34;54.08;;;25.70;;
25127;SDS011;13107;51.304;6.866;2023-02-11T07:21:36;44.83;;;24.45;;
25127;SDS011;13107;51.304;6.866;2023-02-11T07:25:38;48.25;;;25.17;;
25127;SDS011;13107;51.304;6.866;2023-02-11T07:29:40;47.38;;;24.42;;
25127;SDS011;13107;51.304;6.866;2023-02-11T07:33:43;53.70;;;25.45;;
25127;SDS011;13107;51.304;6.866;2023-02-11T07:37:46;48.55;;;24.77;;
25127;SDS011;13107;51.304;6.866;2023-02-11T07:41:47;48.08;;;23.60;;
25127;SDS011;13107;51.304;6.866;2023-02-11T07:45:49;45.33;;;23.90;;
25127;SDS011;13107;51.304;6.866;2023-02-11T07:49:51;45.28;;;23.02;;
25127;SDS011;13107;51.304;6.866;2023-02-11T07:53:57;57.15;;;24.42;;
25127;SDS011;13107;51.304;6.866;2023-02-11T07:58:00;47.53;;;24.12;;
25127;SDS011;13107;51.304;6.866;2023-02-11T08:02:02;40.95;;;23.33;;
25127;SDS011;13107;51.304;6.866;2023-02-11T08:06:05;56.40;;;25.02;;
25127;SDS011;13107;51.304;6.866;2023-02-11T08:10:08;55.10;;;23.33;;
25127;SDS011;13107;51.304;6.866;2023-02-11T08:14:10;44.53;;;24.25;;
25127;SDS011;13107;51.304;6.866;2023-02-11T08:18:12;50.50;;;24.30;;
25127;SDS011;13107;51.304;6.866;2023-02-11T08:22:14;56.47;;;23.83;;
25127;SDS011;13107;51.304;6.866;2023-02-11T08:26:20;52.00;;;25.12;;
25127;SDS011;13107;51.304;6.866;2023-02-11T08:30:23;49.75;;;24.60;;
25127;SDS011;13107;51.304;6.866;2023-02-11T08:34:27;54.00;;;24.27;;
25127;SDS011;13107;51.304;6.866;2023-02-11T08:38:29;52.47;;;25.17;;
25127;SDS011;13107;51.304;6.866;2023-02-11T08:42:31;53.03;;;24.80;;
25127;SDS011;13107;51.304;6.866;2023-02-11T08:46:32;50.63;;;23.95;;
25127;SDS011;13107;51.304;6.866;2023-02-11T08:50:37;57.45;;;25.85;;
25127;SDS011;13107;51.304;6.866;2023-02-11T08:54:39;50.10;;;25.67;;
25127;SDS011;13107;51.304;6.866;2023-02-11T08:58:41;58.47;;;24.52;;
25127;SDS011;13107;51.304;6.866;2023-02-11T09:02:43;51.17;;;24.15;;
25127;SDS011;13107;51.304;6.866;2023-02-11T09:06:45;45.60;;;24.27;;
25127;SDS011;13107;51.304;6.866;2023-02-11T09:10:47;54.92;;;25.45;;
25127;SDS011;13107;51.304;6.866;2023-02-11T09:14:49;45.50;;;24.25;;
25127;SDS011;13107;51.304;6.866;2023-02-11T09:18:51;54.42;;;24.92;;
25127;SDS011;13107;51.304;6.866;2023-02-11T09:22:54;53.00;;;25.17;;
25127;SDS011;13107;51.304;6.866;2023-02-11T09:26:58;51.40;;;25.35;;
25127;SDS011;13107;51.304;6.866;2023-02-11T09:31:07;60.97;;;25.83;;
25127;SDS011;13107;51.304;6.866;2023-02-11T09:35:09;56.67;;;25.62;;
25127;SDS011;13107;51.304;6.866;2023-02-11T09:39:12;56.90;;;26.33;;
25127;SDS011;13107;51.304;6.866;2023-02-11T09:43:18;59.22;;;27.37;;
25127;SDS011;13107;51.304;6.866;2023-02-11T09:47:24;51.05;;;23.30;;
25127;SDS011;13107;51.304;6.866;2023-02-11T09:51:41;59.35;;;28.02;;
25127;SDS011;13107;51.304;6.866;2023-02-11T09:55:55;57.75;;;26.77;;
25127;SDS011;13107;51.304;6.866;2023-02-11T10:00:00;54.05;;;26.80;;
25127;SDS011;13107;51.304;6.866;2023-02-11T10:04:13;50.15;;;25.75;;
25127;SDS011;13107;51.304;6.866;2023-02-11T10:08:27;56.75;;;28.50;;
25127;SDS011;13107;51.304;6.866;2023-02-11T10:13:15;62.85;;;27.02;;
25127;SDS011;13107;51.304;6.866;2023-02-11T10:25:45;53.17;;;27.25;;
25127;SDS011;13107;51.304;6.866;2023-02-11T10:29:55;55.15;;;27.23;;
25127;SDS011;13107;51.304;6.866;2023-02-11T10:34:09;60.15;;;27.42;;
25127;SDS011;13107;51.304;6.866;2023-02-11T10:38:11;58.42;;;27.60;;
25127;SDS011;13107;51.304;6.866;2023-02-11T10:42:13;48.65;;;27.13;;
25127;SDS011;13107;51.304;6.866;2023-02-11T10:46:16;56.55;;;25.37;;
25127;SDS011;13107;51.304;6.866;2023-02-11T10:50:25;54.40;;;26.60;;
25127;SDS011;13107;51.304;6.866;2023-02-11T10:54:30;53.50;;;26.73;;
25127;SDS011;13107;51.304;6.866;2023-02-11T10:58:45;53.28;;;26.40;;
25127;SDS011;13107;51.304;6.866;2023-02-11T11:02:55;51.85;;;25.80;;
25127;SDS011;13107;51.304;6.866;2023-02-11T11:11:20;55.20;;;27.05;;
25127;SDS011;13107;51.304;6.866;2023-02-11T11:15:25;53.63;;;26.83;;
25127;SDS011;13107;51.304;6.866;2023-02-11T11:19:28;52.65;;;26.90;;
25127;SDS011;13107;51.304;6.866;2023-02-11T11:23:30;51.22;;;27.67;;
25127;SDS011;13107;51.304;6.866;2023-02-11T11:27:32;56.47;;;27.70;;
25127;SDS011;13107;51.304;6.866;2023-02-11T11:31:35;52.10;;;26.77;;
25127;SDS011;13107;51.304;6.866;2023-02-11T11:40:08;53.87;;;27.70;;
25127;SDS011;13107;51.304;6.866;2023-02-11T11:48:30;52.85;;;27.87;;
25127;SDS011;13107;51.304;6.866;2023-02-11T11:56:49;51.63;;;28.27;;
25127;SDS011;13107;51.304;6.866;2023-02-11T12:05:31;52.15;;;26.87;;
25127;SDS011;13107;51.304;6.866;2023-02-11T12:09:52;59.40;;;29.08;;
25127;SDS011;13107;51.304;6.866;2023-02-11T12:14:16;57.83;;;27.75;;
25127;SDS011;13107;51.304;6.866;2023-02-11T12:27:20;51.72;;;27.58;;
25127;SDS011;13107;51.304;6.866;2023-02-11T12:32:16;53.20;;;26.70;;
25127;SDS011;13107;51.304;6.866;2023-02-11T12:40:45;54.00;;;28.52;;
25127;SDS011;13107;51.304;6.866;2023-02-11T12:44:55;52.22;;;26.48;;
25127;SDS011;13107;51.304;6.866;2023-02-11T12:49:14;54.95;;;26.90;;
25127;SDS011;13107;51.304;6.866;2023-02-11T12:53:50;53.20;;;27.70;;
25127;SDS011;13107;51.304;6.866;2023-02-11T12:58:17;51.47;;;28.20;;
25127;SDS011;13107;51.304;6.866;2023-02-11T13:02:44;60.88;;;28.58;;
25127;SDS011;13107;51.304;6.866;2023-02-11T13:07:03;50.08;;;27.50;;
25127;SDS011;13107;51.304;6.866;2023-02-11T13:11:12;55.92;;;28.25;;
25127;SDS011;13107;51.304;6.866;2023-02-11T13:15:27;54.78;;;28.05;;
25127;SDS011;13107;51.304;6.866;2023-02-11T13:19:32;51.97;;;27.42;;
25127;SDS011;13107;51.304;6.866;2023-02-11T13:23:48;54.00;;;28.73;;
25127;SDS011;13107;51.304;6.866;2023-02-11T13:28:16;52.05;;;28.17;;
25127;SDS011;13107;51.304;6.866;2023-02-11T13:32:21;55.22;;;28.38;;
25127;SDS011;13107;51.304;6.866;2023-02-11T13:36:23;50.08;;;28.60;;
25127;SDS011;13107;51.304;6.866;2023-02-11T13:40:27;54.40;;;28.05;;
25127;SDS011;13107;51.304;6.866;2023-02-11T13:44:33;50.07;;;28.57;;
25127;SDS011;13107;51.304;6.866;2023-02-11T13:48:35;51.88;;;28.62;;
25127;SDS011;13107;51.304;6.866;2023-02-11T13:52:40;57.88;;;29.60;;
25127;SDS011;13107;51.304;6.866;2023-02-11T13:56:42;61.80;;;29.30;;
25127;SDS011;13107;51.304;6.866;2023-02-11T14:00:47;53.78;;;31.23;;
25127;SDS011;13107;51.304;6.866;2023-02-11T14:09:31;53.25;;;28.33;;
25127;SDS011;13107;51.304;6.866;2023-02-11T14:17:49;56.03;;;29.85;;
25127;SDS011;13107;51.304;6.866;2023-02-11T14:21:52;53.05;;;29.90;;
25127;SDS011;13107;51.304;6.866;2023-02-11T14:26:20;52.83;;;28.58;;
25127;SDS011;13107;51.304;6.866;2023-02-11T14:39:44;57.55;;;29.65;;
25127;SDS011;13107;51.304;6.866;2023-02-11T14:43:54;52.10;;;28.48;;
25127;SDS011;13107;51.304;6.866;2023-02-11T14:48:02;54.42;;;27.75;;
25127;SDS011;13107;51.304;6.866;2023-02-11T14:56:30;53.42;;;30.00;;
25127;SDS011;13107;51.304;6.866;2023-02-11T15:00:34;54.85;;;30.45;;
25127;SDS011;13107;51.304;6.866;2023-02-11T15:04:36;55.42;;;29.23;;
25127;SDS011;13107;51.304;6.866;2023-02-11T15:08:41;45.25;;;27.27;;
25127;SDS011;13107;51.304;6.866;2023-02-11T15:12:46;53.30;;;28.73;;
25127;SDS011;13107;51.304;6.866;2023-02-11T15:16:50;49.28;;;28.60;;
25127;SDS011;13107;51.304;6.866;2023-02-11T15:20:54;50.75;;;29.00;;
25127;SDS011;13107;51.304;6.866;2023-02-11T15:24:57;52.25;;;29.17;;
25127;SDS011;13107;51.304;6.866;2023-02-11T15:28:59;57.28;;;29.55;;
25127;SDS011;13107;51.304;6.866;2023-02-11T15:33:01;53.78;;;29.92;;
25127;SDS011;13107;51.304;6.866;2023-02-11T15:37:05;60.90;;;34.22;;
25127;SDS011;13107;51.304;6.866;2023-02-11T15:41:07;59.30;;;30.65;;
25127;SDS011;13107;51.304;6.866;2023-02-11T15:45:38;53.95;;;31.48;;
25127;SDS011;13107;51.304;6.866;2023-02-11T15:49:54;55.17;;;30.43;;
25127;SDS011;13107;51.304;6.866;2023-02-11T15:53:56;56.15;;;29.40;;
25127;SDS011;13107;51.304;6.866;2023-02-11T15:58:00;53.45;;;29.42;;
25127;SDS011;13107;51.304;6.866;2023-02-11T16:02:24;51.28;;;28.17;;
25127;SDS011;13107;51.304;6.866;2023-02-11T16:06:38;49.65;;;29.83;;
25127;SDS011;13107;51.304;6.866;2023-02-11T16:10:51;59.08;;;30.60;;
25127;SDS011;13107;51.304;6.866;2023-02-11T16:19:33;57.72;;;30.17;;
25127;SDS011;13107;51.304;6.866;2023-02-11T16:23:37;50.03;;;28.00;;
25127;SDS011;13107;51.304;6.866;2023-02-11T16:27:46;55.85;;;29.80;;
25127;SDS011;13107;51.304;6.866;2023-02-11T16:31:50;56.03;;;30.00;;
25127;SDS011;13107;51.304;6.866;2023-02-11T16:35:53;53.80;;;28.70;;
25127;SDS011;13107;51.304;6.866;2023-02-11T16:39:55;54.80;;;29.90;;
25127;SDS011;13107;51.304;6.866;2023-02-11T16:43:58;56.37;;;29.15;;
25127;SDS011;13107;51.304;6.866;2023-02-11T16:48:00;56.70;;;30.90;;
25127;SDS011;13107;51.304;6.866;2023-02-11T16:52:05;56.97;;;29.70;;
25127;SDS011;13107;51.304;6.866;2023-02-11T16:56:14;49.78;;;29.27;;
25127;SDS011;13107;51.304;6.866;2023-02-11T17:00:17;60.42;;;32.05;;
25127;SDS011;13107;51.304;6.866;2023-02-11T17:04:24;55.40;;;32.15;;
25127;SDS011;13107;51.304;6.866;2023-02-11T17:08:28;56.33;;;29.30;;
25127;SDS011;13107;51.304;6.866;2023-02-11T17:12:30;60.30;;;31.23;;
25127;SDS011;13107;51.304;6.866;2023-02-11T17:16:31;65.25;;;32.38;;
25127;SDS011;13107;51.304;6.866;2023-02-11T17:20:33;53.60;;;30.75;;
25127;SDS011;13107;51.304;6.866;2023-02-11T17:24:35;55.20;;;32.25;;
25127;SDS011;13107;51.304;6.866;2023-02-11T17:28:37;65.78;;;31.45;;
25127;SDS011;13107;51.304;6.866;2023-02-11T17:32:39;60.50;;;34.15;;
25127;SDS011;13107;51.304;6.866;2023-02-11T17:36:41;60.25;;;33.10;;
25127;SDS011;13107;51.304;6.866;2023-02-11T17:40:42;65.30;;;33.60;;
25127;SDS011;13107;51.304;6.866;2023-02-11T17:44:44;67.35;;;34.05;;
25127;SDS011;13107;51.304;6.866;2023-02-11T17:48:46;61.10;;;34.47;;
25127;SDS011;13107;51.304;6.866;2023-02-11T17:52:48;65.65;;;34.80;;
25127;SDS011;13107;51.304;6.866;2023-02-11T17:56:50;65.95;;;36.97;;
25127;SDS011;13107;51.304;6.866;2023-02-11T18:04:59;64.37;;;34.88;;
25127;SDS011;13107;51.304;6.866;2023-02-11T18:09:01;64.85;;;35.17;;
25127;SDS011;13107;51.304;6.866;2023-02-11T18:13:04;66.60;;;37.92;;
25127;SDS011;13107;51.304;6.866;2023-02-11T18:17:06;72.93;;;38.95;;
25127;SDS011;13107;51.304;6.866;2023-02-11T18:21:10;74.82;;;38.33;;
25127;SDS011;13107;51.304;6.866;2023-02-11T18:25:15;67.47;;;37.30;;
25127;SDS011;13107;51.304;6.866;2023-02-11T18:29:17;72.95;;;36.00;;
25127;SDS011;13107;51.304;6.866;2023-02-11T18:33:19;82.65;;;43.58;;
25127;SDS011;13107;51.304;6.866;2023-02-11T18:37:21;72.57;;;38.38;;
25127;SDS011;13107;51.304;6.866;2023-02-11T18:41:22;75.57;;;38.35;;
25127;SDS011;13107;51.304;6.866;2023-02-11T18:45:24;72.68;;;39.35;;
25127;SDS011;13107;51.304;6.866;2023-02-11T18:49:29;71.45;;;37.63;;
25127;SDS011;13107;51.304;6.866;2023-02-11T18:53:30;74.85;;;39.08;;
25127;SDS011;13107;51.304;6.866;2023-02-11T18:57:32;80.10;;;40.05;;
25127;SDS011;13107;51.304;6.866;2023-02-11T19:01:34;79.45;;;39.20;;
25127;SDS011;13107;51.304;6.866;2023-02-11T19:05:40;75.78;;;38.95;;
25127;SDS011;13107;51.304;6.866;2023-02-11T19:09:45;82.22;;;39.85;;
25127;SDS011;13107;51.304;6.866;2023-02-11T19:13:48;77.22;;;39.17;;
25127;SDS011;13107;51.304;6.866;2023-02-11T19:17:51;73.40;;;40.03;;
25127;SDS011;13107;51.304;6.866;2023-02-11T19:21:53;75.22;;;39.88;;
25127;SDS011;13107;51.304;6.866;2023-02-11T19:25:55;78.20;;;38.45;;
25127;SDS011;13107;51.304;6.866;2023-02-11T19:29:57;78.70;;;38.53;;
25127;SDS011;13107;51.304;6.866;2023-02-11T19:33:59;72.47;;;38.95;;
25127;SDS011;13107;51.304;6.866;2023-02-11T19:38:02;71.45;;;38.78;;
25127;SDS011;13107;51.304;6.866;2023-02-11T19:42:05;80.32;;;40.28;;
25127;SDS011;13107;51.304;6.866;2023-02-11T19:46:06;79.82;;;41.50;;
25127;SDS011;13107;51.304;6.866;2023-02-11T19:50:08;78.90;;;40.10;;
25127;SDS011;13107;51.304;6.866;2023-02-11T19:54:10;73.35;;;39.97;;
25127;SDS011;13107;51.304;6.866;2023-02-11T19:58:14;81.18;;;41.47;;
25127;SDS011;13107;51.304;6.866;2023-02-11T20:02:16;80.55;;;42.78;;
25127;SDS011;13107;51.304;6.866;2023-02-11T20:06:20;80.50;;;39.85;;
25127;SDS011;13107;51.304;6.866;2023-02-11T20:10:23;75.15;;;40.75;;
25127;SDS011;13107;51.304;6.866;2023-02-11T20:14:25;75.18;;;38.67;;
25127;SDS011;13107;51.304;6.866;2023-02-11T20:18:28;78.68;;;40.83;;
25127;SDS011;13107;51.304;6.866;2023-02-11T20:22:30;76.70;;;40.35;;
25127;SDS011;13107;51.304;6.866;2023-02-11T20:26:31;78.93;;;41.17;;
25127;SDS011;13107;51.304;6.866;2023-02-11T20:30:34;77.60;;;41.95;;
25127;SDS011;13107;51.304;6.866;2023-02-11T20:34:36;79.12;;;41.13;;
25127;SDS011;13107;51.304;6.866;2023-02-11T20:38:38;80.38;;;40.35;;
25127;SDS011;13107;51.304;6.866;2023-02-11T20:42:40;83.35;;;44.55;;
25127;SDS011;13107;51.304;6.866;2023-02-11T20:46:43;78.82;;;42.35;;
25127;SDS011;13107;51.304;6.866;2023-02-11T20:50:48;81.13;;;43.40;;
25127;SDS011;13107;51.304;6.866;2023-02-11T20:54:50;82.30;;;40.67;;
25127;SDS011;13107;51.304;6.866;2023-02-11T20:58:52;73.50;;;39.58;;
25127;SDS011;13107;51.304;6.866;2023-02-11T21:02:53;69.18;;;36.80;;
25127;SDS011;13107;51.304;6.866;2023-02-11T21:06:56;73.03;;;39.20;;
25127;SDS011;13107;51.304;6.866;2023-02-11T21:10:59;81.50;;;41.37;;
25127;SDS011;13107;51.304;6.866;2023-02-11T21:15:02;75.15;;;39.35;;
25127;SDS011;13107;51.304;6.866;2023-02-11T21:19:05;79.25;;;40.12;;
25127;SDS011;13107;51.304;6.866;2023-02-11T21:23:08;73.28;;;38.90;;
25127;SDS011;13107;51.304;6.866;2023-02-11T21:27:09;76.28;;;40.42;;
25127;SDS011;13107;51.304;6.866;2023-02-11T21:31:16;69.07;;;39.50;;
25127;SDS011;13107;51.304;6.866;2023-02-11T21:35:23;80.40;;;41.47;;
25127;SDS011;13107;51.304;6.866;2023-02-11T21:39:25;70.95;;;38.45;;
25127;SDS011;13107;51.304;6.866;2023-02-11T21:43:27;72.65;;;38.83;;
25127;SDS011;13107;51.304;6.866;2023-02-11T21:47:30;76.95;;;40.75;;
25127;SDS011;13107;51.304;6.866;2023-02-11T21:51:31;74.72;;;39.72;;
25127;SDS011;13107;51.304;6.866;2023-02-11T21:55:33;70.45;;;39.33;;
25127;SDS011;13107;51.304;6.866;2023-02-11T21:59:36;83.22;;;41.88;;
25127;SDS011;13107;51.304;6.866;2023-02-11T22:03:38;80.85;;;42.13;;
25127;SDS011;13107;51.304;6.866;2023-02-11T22:07:39;73.05;;;39.65;;
25127;SDS011;13107;51.304;6.866;2023-02-11T22:11:41;79.32;;;42.62;;
25127;SDS011;13107;51.304;6.866;2023-02-11T22:15:43;76.20;;;41.03;;
25127;SDS011;13107;51.304;6.866;2023-02-11T22:19:45;73.15;;;38.08;;
25127;SDS011;13107;51.304;6.866;2023-02-11T22:23:47;70.68;;;38.50;;
25127;SDS011;13107;51.304;6.866;2023-02-11T22:27:49;68.43;;;38.53;;
25127;SDS011;13107;51.304;6.866;2023-02-11T22:31:51;79.25;;;39.75;;
25127;SDS011;13107;51.304;6.866;2023-02-11T22:35:59;75.85;;;40.70;;
25127;SDS011;13107;51.304;6.866;2023-02-11T22:40:03;70.87;;;38.50;;
25127;SDS011;13107;51.304;6.866;2023-02-11T22:44:05;69.07;;;37.65;;
25127;SDS011;13107;51.304;6.866;2023-02-11T22:48:07;82.62;;;42.65;;
25127;SDS011;13107;51.304;6.866;2023-02-11T22:52:08;70.95;;;39.28;;
25127;SDS011;13107;51.304;6.866;2023-02-11T22:56:11;80.85;;;41.85;;
25127;SDS011;13107;51.304;6.866;2023-02-11T23:00:16;74.50;;;41.08;;
25127;SDS011;13107;51.304;6.866;2023-02-11T23:04:19;68.87;;;38.08;;
25127;SDS011;13107;51.304;6.866;2023-02-11T23:08:21;69.65;;;36.58;;
25127;SDS011;13107;51.304;6.866;2023-02-11T23:12:23;62.65;;;34.47;;
25127;SDS011;13107;51.304;6.866;2023-02-11T23:16:25;62.50;;;32.47;;
25127;SDS011;13107;51.304;6.866;2023-02-11T23:20:29;63.58;;;34.75;;
25127;SDS011;13107;51.304;6.866;2023-02-11T23:24:31;64.25;;;34.65;;
25127;SDS011;13107;51.304;6.866;2023-02-11T23:28:33;65.00;;;33.70;;
25127;SDS011;13107;51.304;6.866;2023-02-11T23:32:36;58.55;;;32.20;;
25127;SDS011;13107;51.304;6.866;2023-02-11T23:36:39;63.87;;;33.33;;
25127;SDS011;13107;51.304;6.866;2023-02-11T23:40:41;56.90;;;32.33;;
25127;SDS011;13107;51.304;6.866;2023-02-11T23:44:42;63.28;;;32.13;;
25127;SDS011;13107;51.304;6.866;2023-02-11T23:48:44;55.22;;;31.40;;
25127;SDS011;13107;51.304;6.866;2023-02-11T23:52:46;58.58;;;32.33;;
25127;SDS011;13107;51.304;6.866;2023-02-11T23:56:48;55.55;;;30.67;;
